sensor_id;sensor_type;location;lat;lon;timestamp;pressure;altitude;pressure_sealevel;temperature;humidity
7962;BME280;4026;43.652;24.906;2022-08-21T00:01:40;98503.69;;;22.56;96.52
7962;BME280;4026;43.652;24.906;2022-08-21T00:04:08;98492.47;;;22.62;96.08
7962;BME280;4026;43.652;24.906;2022-08-21T00:06:36;98524.13;;;22.59;95.10
7962;BME280;4026;43.652;24.906;2022-08-21T00:09:05;98523.34;;;22.25;95.52
7962;BME280;4026;43.652;24.906;2022-08-21T00:11:33;98509.69;;;22.10;93.05
7962;BME280;4026;43.652;24.906;2022-08-21T00:14:01;98522.28;;;22.00;94.88
7962;BME280;4026;43.652;24.906;2022-08-21T00:16:30;98524.69;;;21.95;95.16
7962;BME280;4026;43.652;24.906;2022-08-21T00:18:57;98515.41;;;21.72;96.88
7962;BME280;4026;43.652;24.906;2022-08-21T00:21:24;98509.34;;;21.52;94.61
7962;BME280;4026;43.652;24.906;2022-08-21T00:23:51;98510.81;;;21.26;96.03
7962;BME280;4026;43.652;24.906;2022-08-21T00:26:18;98512.31;;;21.00;97.76
7962;BME280;4026;43.652;24.906;2022-08-21T00:28:45;98494.59;;;20.83;99.88
7962;BME280;4026;43.652;24.906;2022-08-21T00:31:14;98485.84;;;20.84;97.37
7962;BME280;4026;43.652;24.906;2022-08-21T00:33:43;98477.53;;;21.01;93.97
7962;BME280;4026;43.652;24.906;2022-08-21T00:36:10;98469.50;;;20.96;93.31
7962;BME280;4026;43.652;24.906;2022-08-21T00:38:37;98471.84;;;20.85;92.90
7962;BME280;4026;43.652;24.906;2022-08-21T00:41:08;98472.81;;;20.77;93.79
7962;BME280;4026;43.652;24.906;2022-08-21T00:43:37;98474.19;;;20.73;93.96
7962;BME280;4026;43.652;24.906;2022-08-21T00:46:06;98466.53;;;20.65;92.10
7962;BME280;4026;43.652;24.906;2022-08-21T00:48:33;98465.31;;;20.61;93.51
7962;BME280;4026;43.652;24.906;2022-08-21T00:51:05;98465.94;;;20.63;95.03
7962;BME280;4026;43.652;24.906;2022-08-21T00:53:35;98467.50;;;20.57;95.77
7962;BME280;4026;43.652;24.906;2022-08-21T00:56:04;98472.41;;;20.52;96.01
7962;BME280;4026;43.652;24.906;2022-08-21T00:58:33;98483.75;;;20.66;95.81
7962;BME280;4026;43.652;24.906;2022-08-21T01:01:03;98475.56;;;20.69;96.59
7962;BME280;4026;43.652;24.906;2022-08-21T01:03:30;98454.53;;;20.64;97.53
7962;BME280;4026;43.652;24.906;2022-08-21T01:05:57;98434.94;;;20.61;99.07
7962;BME280;4026;43.652;24.906;2022-08-21T01:08:26;98431.69;;;20.52;99.48
7962;BME280;4026;43.652;24.906;2022-08-21T01:10:54;98439.72;;;20.57;100.00
7962;BME280;4026;43.652;24.906;2022-08-21T01:13:23;98431.19;;;20.70;100.00
7962;BME280;4026;43.652;24.906;2022-08-21T01:15:53;98389.00;;;20.62;100.00
7962;BME280;4026;43.652;24.906;2022-08-21T01:18:21;98384.97;;;20.59;100.00
7962;BME280;4026;43.652;24.906;2022-08-21T01:21:07;98384.66;;;20.69;100.00
7962;BME280;4026;43.652;24.906;2022-08-21T01:23:35;98386.41;;;20.62;100.00
7962;BME280;4026;43.652;24.906;2022-08-21T01:26:04;98369.72;;;20.49;100.00
7962;BME280;4026;43.652;24.906;2022-08-21T01:28:34;98369.00;;;20.55;100.00
7962;BME280;4026;43.652;24.906;2022-08-21T01:31:05;98367.00;;;20.57;100.00
7962;BME280;4026;43.652;24.906;2022-08-21T01:33:32;98358.97;;;20.52;100.00
7962;BME280;4026;43.652;24.906;2022-08-21T01:35:59;98352.13;;;20.45;100.00
7962;BME280;4026;43.652;24.906;2022-08-21T01:38:28;98346.50;;;20.41;100.00
7962;BME280;4026;43.652;24.906;2022-08-21T01:40:55;98368.94;;;20.49;100.00
7962;BME280;4026;43.652;24.906;2022-08-21T01:43:21;98368.41;;;20.60;100.00
7962;BME280;4026;43.652;24.906;2022-08-21T01:45:48;98374.97;;;20.56;100.00
7962;BME280;4026;43.652;24.906;2022-08-21T01:48:15;98372.09;;;20.44;100.00
7962;BME280;4026;43.652;24.906;2022-08-21T01:50:42;98369.09;;;20.47;100.00
7962;BME280;4026;43.652;24.906;2022-08-21T01:53:09;98373.31;;;20.48;100.00
7962;BME280;4026;43.652;24.906;2022-08-21T01:55:37;98372.59;;;20.54;100.00
7962;BME280;4026;43.652;24.906;2022-08-21T01:58:04;98374.66;;;20.66;100.00
7962;BME280;4026;43.652;24.906;2022-08-21T02:00:31;98381.81;;;20.64;100.00
7962;BME280;4026;43.652;24.906;2022-08-21T02:02:57;98381.59;;;20.65;100.00
7962;BME280;4026;43.652;24.906;2022-08-21T02:05:25;98388.03;;;20.69;100.00
7962;BME280;4026;43.652;24.906;2022-08-21T02:07:53;98392.28;;;20.77;100.00
7962;BME280;4026;43.652;24.906;2022-08-21T02:10:24;98397.84;;;20.74;100.00
7962;BME280;4026;43.652;24.906;2022-08-21T02:12:53;98389.84;;;20.69;100.00
7962;BME280;4026;43.652;24.906;2022-08-21T02:15:20;98395.03;;;20.69;100.00
7962;BME280;4026;43.652;24.906;2022-08-21T02:17:52;98388.16;;;20.54;100.00
7962;BME280;4026;43.652;24.906;2022-08-21T02:20:21;98387.28;;;20.47;100.00
7962;BME280;4026;43.652;24.906;2022-08-21T02:22:48;98388.69;;;20.50;100.00
7962;BME280;4026;43.652;24.906;2022-08-21T02:25:16;98384.94;;;20.52;100.00
7962;BME280;4026;43.652;24.906;2022-08-21T02:27:45;98379.75;;;20.52;100.00
7962;BME280;4026;43.652;24.906;2022-08-21T02:30:16;98390.16;;;20.52;100.00
7962;BME280;4026;43.652;24.906;2022-08-21T02:32:43;98387.28;;;20.47;100.00
7962;BME280;4026;43.652;24.906;2022-08-21T02:35:11;98392.06;;;20.44;100.00
7962;BME280;4026;43.652;24.906;2022-08-21T02:38:02;98386.88;;;20.44;100.00
7962;BME280;4026;43.652;24.906;2022-08-21T02:40:32;98385.84;;;20.38;100.00
7962;BME280;4026;43.652;24.906;2022-08-21T02:42:59;98388.81;;;20.35;100.00
7962;BME280;4026;43.652;24.906;2022-08-21T02:45:28;98386.06;;;20.43;100.00
7962;BME280;4026;43.652;24.906;2022-08-21T02:47:57;98410.94;;;20.52;100.00
7962;BME280;4026;43.652;24.906;2022-08-21T02:50:27;98418.06;;;20.50;100.00
7962;BME280;4026;43.652;24.906;2022-08-21T02:52:55;98420.88;;;20.49;100.00
7962;BME280;4026;43.652;24.906;2022-08-21T02:55:25;98429.34;;;20.57;100.00
7962;BME280;4026;43.652;24.906;2022-08-21T02:57:52;98421.66;;;20.49;100.00
7962;BME280;4026;43.652;24.906;2022-08-21T03:00:21;98426.50;;;20.52;100.00
7962;BME280;4026;43.652;24.906;2022-08-21T03:02:49;98432.31;;;20.54;100.00
7962;BME280;4026;43.652;24.906;2022-08-21T03:05:16;98434.16;;;20.61;100.00
7962;BME280;4026;43.652;24.906;2022-08-21T03:07:44;98436.53;;;20.62;100.00
7962;BME280;4026;43.652;24.906;2022-08-21T03:10:13;98423.16;;;20.65;100.00
7962;BME280;4026;43.652;24.906;2022-08-21T03:12:40;98430.16;;;20.65;100.00
7962;BME280;4026;43.652;24.906;2022-08-21T03:15:10;98433.16;;;20.62;100.00
7962;BME280;4026;43.652;24.906;2022-08-21T03:17:38;98426.91;;;20.56;100.00
7962;BME280;4026;43.652;24.906;2022-08-21T03:20:07;98433.91;;;20.55;100.00
7962;BME280;4026;43.652;24.906;2022-08-21T03:22:34;98440.13;;;20.61;100.00
7962;BME280;4026;43.652;24.906;2022-08-21T03:25:03;98444.94;;;20.64;100.00
7962;BME280;4026;43.652;24.906;2022-08-21T03:27:30;98442.78;;;20.68;100.00
7962;BME280;4026;43.652;24.906;2022-08-21T03:29:57;98447.03;;;20.75;100.00
7962;BME280;4026;43.652;24.906;2022-08-21T03:32:24;98448.59;;;20.70;100.00
7962;BME280;4026;43.652;24.906;2022-08-21T03:34:51;98453.78;;;20.70;100.00
7962;BME280;4026;43.652;24.906;2022-08-21T03:37:19;98451.03;;;20.78;100.00
7962;BME280;4026;43.652;24.906;2022-08-21T03:39:46;98449.06;;;20.80;100.00
7962;BME280;4026;43.652;24.906;2022-08-21T03:42:13;98449.63;;;20.82;100.00
7962;BME280;4026;43.652;24.906;2022-08-21T03:44:39;98455.63;;;20.83;100.00
7962;BME280;4026;43.652;24.906;2022-08-21T03:47:06;98469.66;;;20.88;100.00
7962;BME280;4026;43.652;24.906;2022-08-21T03:49:33;98469.06;;;20.86;100.00
7962;BME280;4026;43.652;24.906;2022-08-21T03:52:00;98469.06;;;20.86;100.00
7962;BME280;4026;43.652;24.906;2022-08-21T03:54:29;98472.88;;;20.90;100.00
7962;BME280;4026;43.652;24.906;2022-08-21T03:56:56;98471.88;;;20.91;100.00
7962;BME280;4026;43.652;24.906;2022-08-21T03:59:23;98485.47;;;20.93;100.00
7962;BME280;4026;43.652;24.906;2022-08-21T04:01:53;98482.66;;;20.88;100.00
7962;BME280;4026;43.652;24.906;2022-08-21T04:04:21;98484.28;;;20.89;100.00
7962;BME280;4026;43.652;24.906;2022-08-21T04:06:47;98484.22;;;20.83;100.00
7962;BME280;4026;43.652;24.906;2022-08-21T04:09:15;98487.44;;;20.85;100.00
7962;BME280;4026;43.652;24.906;2022-08-21T04:11:43;98487.84;;;20.88;100.00
7962;BME280;4026;43.652;24.906;2022-08-21T04:14:11;98495.63;;;20.88;100.00
7962;BME280;4026;43.652;24.906;2022-08-21T04:16:39;98496.47;;;20.89;100.00
7962;BME280;4026;43.652;24.906;2022-08-21T04:19:06;98483.88;;;20.92;100.00
7962;BME280;4026;43.652;24.906;2022-08-21T04:21:35;98486.50;;;20.92;100.00
7962;BME280;4026;43.652;24.906;2022-08-21T04:24:03;98482.50;;;20.96;100.00
7962;BME280;4026;43.652;24.906;2022-08-21T04:26:30;98481.53;;;20.97;100.00
7962;BME280;4026;43.652;24.906;2022-08-21T04:28:58;98481.53;;;20.97;100.00
7962;BME280;4026;43.652;24.906;2022-08-21T04:31:25;98486.94;;;21.02;100.00
7962;BME280;4026;43.652;24.906;2022-08-21T04:33:53;98483.91;;;20.99;100.00
7962;BME280;4026;43.652;24.906;2022-08-21T04:36:20;98489.53;;;21.02;100.00
7962;BME280;4026;43.652;24.906;2022-08-21T04:38:48;98486.94;;;21.02;100.00
7962;BME280;4026;43.652;24.906;2022-08-21T04:41:15;98492.13;;;21.02;100.00
7962;BME280;4026;43.652;24.906;2022-08-21T04:43:41;98496.34;;;21.03;100.00
7962;BME280;4026;43.652;24.906;2022-08-21T04:46:10;98489.56;;;21.09;100.00
7962;BME280;4026;43.652;24.906;2022-08-21T04:48:37;98489.38;;;21.11;100.00
7962;BME280;4026;43.652;24.906;2022-08-21T04:51:07;98486.75;;;21.11;100.00
7962;BME280;4026;43.652;24.906;2022-08-21T04:53:42;98494.78;;;21.16;100.00
7962;BME280;4026;43.652;24.906;2022-08-21T04:56:14;98487.44;;;21.26;100.00
7962;BME280;4026;43.652;24.906;2022-08-21T04:58:42;98489.63;;;21.29;100.00
7962;BME280;4026;43.652;24.906;2022-08-21T05:01:14;98492.47;;;21.34;100.00
7962;BME280;4026;43.652;24.906;2022-08-21T05:03:42;98495.50;;;21.38;100.00
7962;BME280;4026;43.652;24.906;2022-08-21T05:06:11;98495.34;;;21.46;100.00
7962;BME280;4026;43.652;24.906;2022-08-21T05:08:40;98503.75;;;21.55;100.00
7962;BME280;4026;43.652;24.906;2022-08-21T05:11:09;98500.19;;;21.56;100.00
7962;BME280;4026;43.652;24.906;2022-08-21T05:13:36;98492.56;;;21.61;100.00
7962;BME280;4026;43.652;24.906;2022-08-21T05:16:03;98494.03;;;21.70;100.00
7962;BME280;4026;43.652;24.906;2022-08-21T05:18:31;98493.00;;;21.78;100.00
7962;BME280;4026;43.652;24.906;2022-08-21T05:20:58;98499.84;;;21.85;100.00
7962;BME280;4026;43.652;24.906;2022-08-21T05:23:25;98491.25;;;21.91;100.00
7962;BME280;4026;43.652;24.906;2022-08-21T05:25:53;98485.44;;;22.03;100.00
7962;BME280;4026;43.652;24.906;2022-08-21T05:28:20;98484.66;;;22.09;99.66
7962;BME280;4026;43.652;24.906;2022-08-21T05:30:47;98483.84;;;22.15;100.00
7962;BME280;4026;43.652;24.906;2022-08-21T05:33:14;98491.91;;;22.20;100.00
7962;BME280;4026;43.652;24.906;2022-08-21T05:35:42;98482.28;;;22.27;100.00
7962;BME280;4026;43.652;24.906;2022-08-21T05:38:09;98487.06;;;22.30;100.00
7962;BME280;4026;43.652;24.906;2022-08-21T05:40:36;98485.06;;;22.39;99.87
7962;BME280;4026;43.652;24.906;2022-08-21T05:43:03;98491.50;;;22.43;99.66
7962;BME280;4026;43.652;24.906;2022-08-21T05:45:31;98475.63;;;22.58;99.84
7962;BME280;4026;43.652;24.906;2022-08-21T05:48:05;98481.81;;;22.70;99.88
7962;BME280;4026;43.652;24.906;2022-08-21T05:50:32;98483.00;;;22.88;97.72
7962;BME280;4026;43.652;24.906;2022-08-21T05:53:00;98480.53;;;23.06;97.53
7962;BME280;4026;43.652;24.906;2022-08-21T05:55:28;98471.66;;;23.20;96.05
7962;BME280;4026;43.652;24.906;2022-08-21T05:57:54;98479.53;;;23.52;99.31
7962;BME280;4026;43.652;24.906;2022-08-21T06:00:21;98477.88;;;23.64;98.12
7962;BME280;4026;43.652;24.906;2022-08-21T06:02:49;98480.44;;;23.78;96.39
7962;BME280;4026;43.652;24.906;2022-08-21T06:05:16;98479.38;;;23.85;95.81
7962;BME280;4026;43.652;24.906;2022-08-21T06:07:43;98482.16;;;23.90;94.87
7962;BME280;4026;43.652;24.906;2022-08-21T06:10:12;98485.34;;;23.92;93.52
7962;BME280;4026;43.652;24.906;2022-08-21T06:12:39;98478.91;;;23.95;93.59
7962;BME280;4026;43.652;24.906;2022-08-21T06:15:06;98487.75;;;23.94;93.42
7962;BME280;4026;43.652;24.906;2022-08-21T06:17:33;98486.63;;;23.83;92.93
7962;BME280;4026;43.652;24.906;2022-08-21T06:20:00;98490.56;;;23.92;92.80
7962;BME280;4026;43.652;24.906;2022-08-21T06:22:27;98483.44;;;24.06;94.01
7962;BME280;4026;43.652;24.906;2022-08-21T06:24:55;98488.00;;;24.11;91.69
7962;BME280;4026;43.652;24.906;2022-08-21T06:27:23;98484.59;;;24.10;90.31
7962;BME280;4026;43.652;24.906;2022-08-21T06:29:50;98485.63;;;24.09;89.49
7962;BME280;4026;43.652;24.906;2022-08-21T06:32:17;98500.50;;;24.09;87.95
7962;BME280;4026;43.652;24.906;2022-08-21T06:34:43;98500.94;;;24.06;86.24
7962;BME280;4026;43.652;24.906;2022-08-21T06:37:10;98498.09;;;24.07;87.20
7962;BME280;4026;43.652;24.906;2022-08-21T06:39:37;98500.75;;;24.26;86.54
7962;BME280;4026;43.652;24.906;2022-08-21T06:42:05;98501.56;;;24.51;83.96
7962;BME280;4026;43.652;24.906;2022-08-21T06:44:33;98502.91;;;24.60;83.85
7962;BME280;4026;43.652;24.906;2022-08-21T06:47:00;98508.16;;;24.79;81.64
7962;BME280;4026;43.652;24.906;2022-08-21T06:49:26;98522.00;;;25.23;82.74
7962;BME280;4026;43.652;24.906;2022-08-21T06:51:53;98517.91;;;25.75;84.44
7962;BME280;4026;43.652;24.906;2022-08-21T06:54:20;98510.91;;;26.00;77.97
7962;BME280;4026;43.652;24.906;2022-08-21T06:56:47;98511.88;;;26.40;77.56
7962;BME280;4026;43.652;24.906;2022-08-21T06:59:14;98520.66;;;26.23;72.98
7962;BME280;4026;43.652;24.906;2022-08-21T07:01:42;98529.31;;;26.23;75.53
7962;BME280;4026;43.652;24.906;2022-08-21T07:04:09;98519.19;;;26.38;78.06
7962;BME280;4026;43.652;24.906;2022-08-21T07:06:36;98532.88;;;26.52;77.80
7962;BME280;4026;43.652;24.906;2022-08-21T07:09:03;98522.41;;;26.64;77.07
7962;BME280;4026;43.652;24.906;2022-08-21T07:11:30;98531.63;;;26.55;75.38
7962;BME280;4026;43.652;24.906;2022-08-21T07:13:57;98525.44;;;26.49;75.58
7962;BME280;4026;43.652;24.906;2022-08-21T07:16:24;98534.13;;;26.50;74.56
7962;BME280;4026;43.652;24.906;2022-08-21T07:18:52;98532.84;;;26.40;75.67
7962;BME280;4026;43.652;24.906;2022-08-21T07:21:19;98534.09;;;26.26;74.90
7962;BME280;4026;43.652;24.906;2022-08-21T07:23:48;98529.22;;;26.30;77.78
7962;BME280;4026;43.652;24.906;2022-08-21T07:26:16;98534.00;;;26.45;75.63
7962;BME280;4026;43.652;24.906;2022-08-21T07:28:44;98532.22;;;26.80;75.11
7962;BME280;4026;43.652;24.906;2022-08-21T07:31:13;98530.81;;;26.90;73.40
7962;BME280;4026;43.652;24.906;2022-08-21T07:33:41;98528.03;;;27.31;72.15
7962;BME280;4026;43.652;24.906;2022-08-21T07:36:09;98527.00;;;27.33;70.47
7962;BME280;4026;43.652;24.906;2022-08-21T07:38:36;98524.88;;;27.87;72.35
7962;BME280;4026;43.652;24.906;2022-08-21T07:41:08;98517.22;;;28.02;69.51
7962;BME280;4026;43.652;24.906;2022-08-21T07:43:37;98515.63;;;28.35;71.67
7962;BME280;4026;43.652;24.906;2022-08-21T07:46:04;98515.66;;;28.74;70.71
7962;BME280;4026;43.652;24.906;2022-08-21T07:48:31;98519.50;;;28.83;68.78
7962;BME280;4026;43.652;24.906;2022-08-21T07:50:59;98508.03;;;28.94;72.67
7962;BME280;4026;43.652;24.906;2022-08-21T07:53:30;98509.03;;;29.32;62.73
7962;BME280;4026;43.652;24.906;2022-08-21T07:55:57;98506.31;;;29.71;64.19
7962;BME280;4026;43.652;24.906;2022-08-21T07:58:24;98510.25;;;30.00;62.67
7962;BME280;4026;43.652;24.906;2022-08-21T08:00:51;98509.56;;;29.83;61.11
7962;BME280;4026;43.652;24.906;2022-08-21T08:03:17;98508.78;;;29.55;57.86
7962;BME280;4026;43.652;24.906;2022-08-21T08:05:44;98511.72;;;29.37;62.92
7962;BME280;4026;43.652;24.906;2022-08-21T08:08:11;98511.50;;;29.17;62.97
7962;BME280;4026;43.652;24.906;2022-08-21T08:10:39;98507.72;;;29.07;64.06
7962;BME280;4026;43.652;24.906;2022-08-21T08:13:06;98505.66;;;28.93;61.57
7962;BME280;4026;43.652;24.906;2022-08-21T08:15:33;98511.22;;;28.74;61.80
7962;BME280;4026;43.652;24.906;2022-08-21T08:18:00;98509.25;;;28.64;63.53
7962;BME280;4026;43.652;24.906;2022-08-21T08:20:27;98502.72;;;28.50;63.22
7962;BME280;4026;43.652;24.906;2022-08-21T08:22:55;98508.06;;;28.21;64.33
7962;BME280;4026;43.652;24.906;2022-08-21T08:25:24;98508.22;;;28.32;65.32
7962;BME280;4026;43.652;24.906;2022-08-21T08:27:52;98503.44;;;27.95;63.48
7962;BME280;4026;43.652;24.906;2022-08-21T08:30:21;98505.13;;;27.84;63.43
7962;BME280;4026;43.652;24.906;2022-08-21T08:32:49;98502.72;;;27.83;64.80
7962;BME280;4026;43.652;24.906;2022-08-21T08:35:16;98497.28;;;27.72;65.47
7962;BME280;4026;43.652;24.906;2022-08-21T08:37:43;98499.31;;;27.70;64.91
7962;BME280;4026;43.652;24.906;2022-08-21T08:40:13;98500.19;;;27.59;65.36
7962;BME280;4026;43.652;24.906;2022-08-21T08:42:41;98491.66;;;27.69;66.39
7962;BME280;4026;43.652;24.906;2022-08-21T08:45:12;98502.53;;;27.72;67.65
7962;BME280;4026;43.652;24.906;2022-08-21T08:47:42;98490.09;;;27.68;65.47
7962;BME280;4026;43.652;24.906;2022-08-21T08:50:15;98491.81;;;27.62;65.82
7962;BME280;4026;43.652;24.906;2022-08-21T08:52:47;98491.66;;;27.52;67.49
7962;BME280;4026;43.652;24.906;2022-08-21T08:55:19;98492.13;;;27.49;65.52
7962;BME280;4026;43.652;24.906;2022-08-21T08:57:48;98485.94;;;27.55;66.44
7962;BME280;4026;43.652;24.906;2022-08-21T09:00:19;98489.91;;;27.58;66.27
7962;BME280;4026;43.652;24.906;2022-08-21T09:02:47;98496.53;;;27.31;66.30
7962;BME280;4026;43.652;24.906;2022-08-21T09:05:25;98487.41;;;27.22;66.38
7962;BME280;4026;43.652;24.906;2022-08-21T09:10:49;98484.59;;;27.12;66.48
7962;BME280;4026;43.652;24.906;2022-08-21T09:13:23;98480.59;;;27.21;69.96
7962;BME280;4026;43.652;24.906;2022-08-21T09:15:57;98482.44;;;27.09;65.49
7962;BME280;4026;43.652;24.906;2022-08-21T09:18:37;98484.84;;;26.99;65.74
7962;BME280;4026;43.652;24.906;2022-08-21T09:21:15;98479.47;;;27.17;69.56
7962;BME280;4026;43.652;24.906;2022-08-21T09:23:49;98472.91;;;27.31;67.22
7962;BME280;4026;43.652;24.906;2022-08-21T09:26:21;98472.56;;;27.28;67.02
7962;BME280;4026;43.652;24.906;2022-08-21T09:28:52;98465.47;;;27.28;66.86
7962;BME280;4026;43.652;24.906;2022-08-21T09:31:25;98474.78;;;27.48;67.29
7962;BME280;4026;43.652;24.906;2022-08-21T09:33:58;98469.03;;;27.22;66.34
7962;BME280;4026;43.652;24.906;2022-08-21T09:36:33;98469.84;;;27.11;66.54
7962;BME280;4026;43.652;24.906;2022-08-21T09:39:02;98467.31;;;27.28;66.57
7962;BME280;4026;43.652;24.906;2022-08-21T09:41:32;98464.09;;;27.38;66.58
7962;BME280;4026;43.652;24.906;2022-08-21T09:44:01;98460.69;;;27.54;65.52
7962;BME280;4026;43.652;24.906;2022-08-21T09:46:29;98460.41;;;27.67;67.84
7962;BME280;4026;43.652;24.906;2022-08-21T09:48:58;98468.81;;;27.81;67.75
7962;BME280;4026;43.652;24.906;2022-08-21T09:51:28;98462.91;;;27.91;65.36
7962;BME280;4026;43.652;24.906;2022-08-21T09:53:58;98463.53;;;27.98;65.46
7962;BME280;4026;43.652;24.906;2022-08-21T09:56:30;98455.59;;;27.93;61.66
7962;BME280;4026;43.652;24.906;2022-08-21T09:59:18;98457.09;;;28.06;62.67
7962;BME280;4026;43.652;24.906;2022-08-21T10:01:48;98453.84;;;27.98;61.94
7962;BME280;4026;43.652;24.906;2022-08-21T10:04:20;98444.63;;;27.96;65.53
7962;BME280;4026;43.652;24.906;2022-08-21T10:06:48;98441.34;;;27.89;63.30
7962;BME280;4026;43.652;24.906;2022-08-21T10:09:17;98443.00;;;27.95;63.80
7962;BME280;4026;43.652;24.906;2022-08-21T10:11:51;98449.03;;;27.95;63.37
7962;BME280;4026;43.652;24.906;2022-08-21T10:14:37;98437.59;;;28.02;63.03
7962;BME280;4026;43.652;24.906;2022-08-21T10:17:16;98439.97;;;28.03;60.36
7962;BME280;4026;43.652;24.906;2022-08-21T10:19:53;98439.34;;;27.96;58.78
7962;BME280;4026;43.652;24.906;2022-08-21T10:22:34;98440.72;;;27.82;59.32
7962;BME280;4026;43.652;24.906;2022-08-21T10:25:10;98439.47;;;27.72;57.88
7962;BME280;4026;43.652;24.906;2022-08-21T10:27:47;98437.63;;;27.56;57.78
7962;BME280;4026;43.652;24.906;2022-08-21T10:30:21;98438.47;;;27.45;58.91
7962;BME280;4026;43.652;24.906;2022-08-21T10:33:02;98438.41;;;27.57;61.69
7962;BME280;4026;43.652;24.906;2022-08-21T10:35:35;98432.94;;;27.58;60.39
7962;BME280;4026;43.652;24.906;2022-08-21T10:38:31;98431.19;;;27.64;58.50
7962;BME280;4026;43.652;24.906;2022-08-21T10:41:08;98435.72;;;27.68;62.35
7962;BME280;4026;43.652;24.906;2022-08-21T10:43:45;98435.03;;;27.73;61.21
7962;BME280;4026;43.652;24.906;2022-08-21T10:46:25;98427.16;;;27.73;60.86
7962;BME280;4026;43.652;24.906;2022-08-21T10:48:59;98423.25;;;27.75;59.85
7962;BME280;4026;43.652;24.906;2022-08-21T10:51:38;98414.22;;;27.71;59.67
7962;BME280;4026;43.652;24.906;2022-08-21T10:54:14;98422.19;;;27.76;59.64
7962;BME280;4026;43.652;24.906;2022-08-21T10:56:46;98410.53;;;27.84;59.24
7962;BME280;4026;43.652;24.906;2022-08-21T10:59:25;98413.09;;;27.79;57.60
7962;BME280;4026;43.652;24.906;2022-08-21T11:01:57;98406.69;;;27.92;62.38
7962;BME280;4026;43.652;24.906;2022-08-21T11:04:32;98405.91;;;27.91;58.23
7962;BME280;4026;43.652;24.906;2022-08-21T11:07:04;98410.53;;;27.84;61.42
7962;BME280;4026;43.652;24.906;2022-08-21T11:09:32;98404.78;;;27.70;58.68
7962;BME280;4026;43.652;24.906;2022-08-21T11:12:04;98406.34;;;27.71;60.14
7962;BME280;4026;43.652;24.906;2022-08-21T11:14:39;98406.22;;;27.61;58.80
7962;BME280;4026;43.652;24.906;2022-08-21T11:17:11;98403.81;;;27.76;59.37
7962;BME280;4026;43.652;24.906;2022-08-21T11:19:45;98399.06;;;27.90;59.47
7962;BME280;4026;43.652;24.906;2022-08-21T11:22:21;98385.06;;;28.02;61.02
7962;BME280;4026;43.652;24.906;2022-08-21T11:24:56;98387.56;;;28.13;60.21
7962;BME280;4026;43.652;24.906;2022-08-21T11:27:29;98384.09;;;28.08;57.56
7962;BME280;4026;43.652;24.906;2022-08-21T11:30:00;98391.72;;;28.09;60.36
7962;BME280;4026;43.652;24.906;2022-08-21T11:33:02;98381.28;;;27.97;59.72
7962;BME280;4026;43.652;24.906;2022-08-21T11:35:39;98377.84;;;27.63;67.61
7962;BME280;4026;43.652;24.906;2022-08-21T11:38:22;98374.53;;;27.68;67.69
7962;BME280;4026;43.652;24.906;2022-08-21T11:41:03;98363.31;;;27.72;69.02
7962;BME280;4026;43.652;24.906;2022-08-21T11:43:37;98365.06;;;27.84;69.34
7962;BME280;4026;43.652;24.906;2022-08-21T11:46:18;98362.34;;;27.95;67.62
7962;BME280;4026;43.652;24.906;2022-08-21T11:48:57;98354.69;;;27.77;68.73
7962;BME280;4026;43.652;24.906;2022-08-21T11:51:33;98357.50;;;27.70;71.28
7962;BME280;4026;43.652;24.906;2022-08-21T11:54:06;98350.50;;;27.59;70.07
7962;BME280;4026;43.652;24.906;2022-08-21T11:56:40;98356.31;;;27.61;71.35
7962;BME280;4026;43.652;24.906;2022-08-21T11:59:12;98341.91;;;27.47;68.54
7962;BME280;4026;43.652;24.906;2022-08-21T12:01:46;98335.91;;;27.68;69.70
7962;BME280;4026;43.652;24.906;2022-08-21T12:04:22;98334.66;;;27.54;69.36
7962;BME280;4026;43.652;24.906;2022-08-21T12:06:54;98341.81;;;27.75;69.32
7962;BME280;4026;43.652;24.906;2022-08-21T12:09:32;98342.34;;;27.77;68.74
7962;BME280;4026;43.652;24.906;2022-08-21T12:12:07;98347.63;;;27.61;67.42
7962;BME280;4026;43.652;24.906;2022-08-21T12:14:40;98342.03;;;27.57;68.46
7962;BME280;4026;43.652;24.906;2022-08-21T12:17:08;98340.88;;;27.82;66.93
7962;BME280;4026;43.652;24.906;2022-08-21T12:19:43;98330.25;;;28.10;67.53
7962;BME280;4026;43.652;24.906;2022-08-21T12:22:13;98330.06;;;28.17;66.02
7962;BME280;4026;43.652;24.906;2022-08-21T12:24:43;98331.94;;;28.21;62.62
7962;BME280;4026;43.652;24.906;2022-08-21T12:27:22;98325.44;;;28.46;65.47
7962;BME280;4026;43.652;24.906;2022-08-21T12:29:54;98327.31;;;28.73;63.77
7962;BME280;4026;43.652;24.906;2022-08-21T12:32:27;98323.25;;;28.87;63.80
7962;BME280;4026;43.652;24.906;2022-08-21T12:35:10;98322.25;;;28.93;61.78
7962;BME280;4026;43.652;24.906;2022-08-21T12:37:44;98323.97;;;29.04;59.83
7962;BME280;4026;43.652;24.906;2022-08-21T12:40:18;98322.56;;;29.24;61.08
7962;BME280;4026;43.652;24.906;2022-08-21T12:42:49;98317.78;;;28.94;59.97
7962;BME280;4026;43.652;24.906;2022-08-21T12:45:19;98310.72;;;28.99;60.21
7962;BME280;4026;43.652;24.906;2022-08-21T12:47:49;98296.91;;;29.14;59.08
7962;BME280;4026;43.652;24.906;2022-08-21T12:50:21;98291.63;;;29.41;61.12
7962;BME280;4026;43.652;24.906;2022-08-21T12:52:57;98300.84;;;29.81;59.47
7962;BME280;4026;43.652;24.906;2022-08-21T12:55:29;98306.09;;;29.76;55.55
7962;BME280;4026;43.652;24.906;2022-08-21T12:57:56;98297.94;;;29.77;57.65
7962;BME280;4026;43.652;24.906;2022-08-21T13:00:25;98302.13;;;29.78;57.80
7962;BME280;4026;43.652;24.906;2022-08-21T13:02:53;98300.41;;;29.57;56.61
7962;BME280;4026;43.652;24.906;2022-08-21T13:05:28;98307.63;;;29.72;58.27
7962;BME280;4026;43.652;24.906;2022-08-21T13:07:57;98302.59;;;29.65;56.50
7962;BME280;4026;43.652;24.906;2022-08-21T13:10:27;98297.53;;;29.59;57.61
7962;BME280;4026;43.652;24.906;2022-08-21T13:12:56;98303.94;;;29.73;58.28
7962;BME280;4026;43.652;24.906;2022-08-21T13:15:28;98308.56;;;29.55;55.66
7962;BME280;4026;43.652;24.906;2022-08-21T13:17:55;98307.44;;;29.46;57.02
7962;BME280;4026;43.652;24.906;2022-08-21T13:20:29;98304.69;;;29.63;56.91
7962;BME280;4026;43.652;24.906;2022-08-21T13:22:58;98303.13;;;29.62;56.43
7962;BME280;4026;43.652;24.906;2022-08-21T13:25:30;98303.16;;;29.72;56.66